Time;durP1;ratioP1;P1;durP2;ratioP2;P2;SDS_P1;SDS_P2;PMS_P1;PMS_P2;Temp;Humidity;BMP_temperature;BMP_pressure;BME280_temperature;BME280_humidity;BME280_pressure;Samples;Min_cycle;Max_cycle;Signal;HPM_P1;HPM_P2
2023/03/15 00:01:51;;;;;;;1.30;1.30;;;9.60;99.90;;;;;;5046339;28;20198;-74
2023/03/15 00:04:18;;;;;;;1.20;1.20;;;9.60;99.90;;;;;;5048540;28;20266;-75
2023/03/15 00:06:45;;;;;;;1.10;1.10;;;9.50;99.90;;;;;;5047414;28;20226;-75
2023/03/15 00:09:12;;;;;;;1.20;1.20;;;9.40;99.90;;;;;;5045458;28;20211;-75
2023/03/15 00:11:40;;;;;;;1.42;1.33;;;9.40;99.90;;;;;;5042525;28;20234;-76
2023/03/15 00:14:07;;;;;;;1.63;1.60;;;9.30;99.90;;;;;;5046327;28;20229;-75
2023/03/15 00:16:34;;;;;;;1.48;1.48;;;9.30;99.90;;;;;;5046454;28;20325;-75
2023/03/15 00:19:01;;;;;;;2.15;1.50;;;9.20;99.90;;;;;;5042648;28;20289;-76
2023/03/15 00:21:28;;;;;;;1.42;1.42;;;9.10;99.90;;;;;;5043070;28;20292;-76
2023/03/15 00:23:55;;;;;;;1.40;1.40;;;9.10;99.90;;;;;;5042306;28;20206;-76
2023/03/15 00:26:22;;;;;;;1.50;1.50;;;9.10;99.90;;;;;;5047606;28;20230;-75
2023/03/15 00:28:51;;;;;;;1.60;1.60;;;9.20;99.90;;;;;;5044270;28;20807;-75
2023/03/15 00:31:20;;;;;;;1.90;1.80;;;9.30;99.90;;;;;;5045121;28;20203;-75
2023/03/15 00:33:47;;;;;;;1.40;1.40;;;9.30;99.90;;;;;;5048394;28;20253;-74
2023/03/15 00:36:14;;;;;;;1.25;1.25;;;9.30;99.90;;;;;;5047159;28;20238;-76
2023/03/15 00:38:43;;;;;;;1.27;1.27;;;9.40;99.90;;;;;;5043596;28;20199;-76
2023/03/15 00:41:11;;;;;;;1.23;1.23;;;9.40;99.90;;;;;;5043786;28;20222;-75
2023/03/15 00:43:38;;;;;;;1.63;1.55;;;9.50;99.90;;;;;;5059623;28;20198;-75
2023/03/15 00:46:07;;;;;;;1.60;1.60;;;9.50;99.90;;;;;;5044516;28;20956;-75
2023/03/15 00:48:34;;;;;;;1.70;1.70;;;9.50;99.90;;;;;;5044666;28;20223;-75
2023/03/15 00:51:06;;;;;;;1.40;1.40;;;9.50;99.90;;;;;;5045662;28;20210;-76
2023/03/15 00:53:33;;;;;;;1.40;1.40;;;9.50;99.90;;;;;;5042926;28;20293;-75
2023/03/15 00:56:04;;;;;;;1.15;1.15;;;9.40;99.90;;;;;;5041821;28;20200;-74
2023/03/15 00:58:31;;;;;;;1.15;1.15;;;9.40;99.90;;;;;;5045490;28;20729;-75
2023/03/15 01:00:59;;;;;;;1.30;1.30;;;9.40;99.90;;;;;;5039506;28;20203;-75
2023/03/15 01:03:28;;;;;;;1.40;1.40;;;9.50;99.90;;;;;;5043771;28;20205;-76
2023/03/15 01:05:55;;;;;;;1.50;1.40;;;9.50;99.90;;;;;;5037744;28;20261;-75
2023/03/15 01:08:23;;;;;;;1.42;1.42;;;9.40;99.90;;;;;;5044886;28;20277;-75
2023/03/15 01:10:50;;;;;;;1.25;1.25;;;9.40;99.90;;;;;;5042265;28;20273;-75
2023/03/15 01:13:17;;;;;;;1.40;1.40;;;9.40;99.90;;;;;;5045965;28;20821;-75
2023/03/15 01:15:47;;;;;;;1.67;1.50;;;9.30;99.90;;;;;;5043082;28;20238;-75
2023/03/15 01:18:14;;;;;;;1.50;1.50;;;9.30;99.90;;;;;;5043581;28;20219;-75
2023/03/15 01:20:44;;;;;;;1.42;1.42;;;9.20;99.90;;;;;;5042538;28;20220;-75
2023/03/15 01:23:11;;;;;;;1.52;1.52;;;9.20;99.90;;;;;;5043432;28;20214;-75
2023/03/15 01:25:38;;;;;;;1.30;1.30;;;9.20;99.90;;;;;;5044280;28;20307;-76
2023/03/15 01:28:05;;;;;;;1.33;1.33;;;9.20;99.90;;;;;;5044862;28;20223;-75
2023/03/15 01:30:32;;;;;;;1.50;1.40;;;9.20;99.90;;;;;;5042714;28;20638;-75
2023/03/15 01:32:59;;;;;;;1.27;1.27;;;9.20;99.90;;;;;;5044044;28;20302;-76
2023/03/15 01:35:26;;;;;;;1.50;1.50;;;9.20;99.90;;;;;;5043030;28;20261;-75
2023/03/15 01:37:55;;;;;;;1.40;1.40;;;9.20;99.90;;;;;;5043557;28;20273;-76
2023/03/15 01:40:22;;;;;;;1.40;1.40;;;9.10;99.90;;;;;;5054805;28;20381;-76
2023/03/15 01:42:53;;;;;;;1.48;1.48;;;9.10;99.90;;;;;;5046599;28;20262;-76
2023/03/15 01:46:01;;;;;;;1.80;1.80;;;9.00;99.90;;;;;;5042904;28;20863;-76
2023/03/15 01:48:32;;;;;;;1.38;1.38;;;9.00;99.90;;;;;;5044661;28;20261;-76
2023/03/15 01:51:01;;;;;;;1.50;1.50;;;8.90;99.90;;;;;;5041973;28;20242;-75
2023/03/15 01:53:31;;;;;;;1.30;1.30;;;8.90;99.90;;;;;;5042497;28;20245;-75
2023/03/15 01:56:00;;;;;;;1.40;1.40;;;8.80;99.90;;;;;;5040575;28;20275;-76
2023/03/15 01:58:28;;;;;;;1.60;1.60;;;8.80;99.90;;;;;;5043605;28;20302;-75
2023/03/15 02:00:55;;;;;;;1.55;1.55;;;8.80;99.90;;;;;;5042442;28;20223;-76
2023/03/15 02:03:26;;;;;;;1.50;1.42;;;8.70;99.90;;;;;;5042673;28;20289;-75
2023/03/15 02:05:58;;;;;;;1.60;1.50;;;8.70;99.90;;;;;;5042529;28;20287;-75
2023/03/15 02:08:31;;;;;;;1.52;1.52;;;8.60;99.90;;;;;;5045633;28;20218;-75
2023/03/15 02:11:02;;;;;;;1.40;1.40;;;8.60;99.90;;;;;;5041278;28;20242;-76
2023/03/15 02:13:30;;;;;;;1.60;1.60;;;8.60;99.90;;;;;;5043531;28;20236;-75
2023/03/15 02:15:58;;;;;;;1.48;1.48;;;8.60;99.90;;;;;;5043515;28;20238;-75
2023/03/15 02:18:26;;;;;;;1.30;1.30;;;8.50;99.90;;;;;;5045002;28;20227;-75
2023/03/15 02:20:59;;;;;;;1.50;1.50;;;8.50;99.90;;;;;;5040987;28;20297;-75
2023/03/15 02:23:27;;;;;;;1.50;1.50;;;8.50;99.90;;;;;;5044162;28;20835;-75
2023/03/15 02:26:06;;;;;;;1.45;1.45;;;8.50;99.90;;;;;;5042349;28;20209;-76
2023/03/15 02:28:35;;;;;;;1.40;1.40;;;8.40;99.90;;;;;;5042233;28;20223;-77
2023/03/15 02:31:02;;;;;;;1.77;1.77;;;8.40;99.90;;;;;;5039208;28;20246;-75
2023/03/15 02:33:32;;;;;;;1.60;1.60;;;8.40;99.90;;;;;;5046658;28;20256;-76
2023/03/15 02:36:10;;;;;;;1.30;1.30;;;8.30;99.90;;;;;;5043235;28;20257;-75
2023/03/15 02:38:37;;;;;;;1.38;1.38;;;8.30;99.90;;;;;;5057581;28;20267;-76
2023/03/15 02:41:05;;;;;;;1.40;1.40;;;8.30;99.90;;;;;;5045525;28;20612;-76
2023/03/15 02:43:35;;;;;;;1.27;1.27;;;8.30;99.90;;;;;;5045346;28;20199;-75
2023/03/15 02:46:04;;;;;;;1.33;1.33;;;8.20;99.90;;;;;;5043854;28;20199;-75
2023/03/15 02:48:33;;;;;;;1.50;1.50;;;8.10;99.90;;;;;;5040042;28;20843;-76
2023/03/15 02:51:01;;;;;;;1.52;1.52;;;8.10;99.90;;;;;;5043229;28;20715;-74
2023/03/15 02:53:29;;;;;;;1.73;1.73;;;8.00;99.90;;;;;;5042925;28;20202;-76
2023/03/15 02:55:56;;;;;;;1.55;1.55;;;8.00;99.90;;;;;;5039956;28;20218;-75
2023/03/15 02:58:23;;;;;;;1.70;1.60;;;8.00;99.90;;;;;;5042906;28;20222;-76
2023/03/15 03:00:52;;;;;;;1.67;1.67;;;8.00;99.90;;;;;;5042515;28;20282;-75
2023/03/15 03:03:19;;;;;;;1.80;1.80;;;8.00;99.90;;;;;;5038748;28;20685;-75
2023/03/15 03:05:46;;;;;;;1.65;1.65;;;7.90;99.90;;;;;;5041689;28;20206;-74
2023/03/15 03:08:15;;;;;;;1.70;1.60;;;7.90;99.90;;;;;;5043330;28;20276;-76
2023/03/15 03:10:42;;;;;;;1.45;1.45;;;7.80;99.90;;;;;;5038019;28;20866;-76
2023/03/15 03:13:09;;;;;;;1.63;1.63;;;7.80;99.90;;;;;;5045686;28;20198;-74
2023/03/15 03:15:36;;;;;;;1.58;1.50;;;7.80;99.90;;;;;;5041660;28;20227;-76
2023/03/15 03:18:05;;;;;;;1.48;1.48;;;7.80;99.90;;;;;;5043106;28;20241;-75
2023/03/15 03:20:32;;;;;;;1.70;1.70;;;7.90;99.90;;;;;;5037435;28;20226;-75
2023/03/15 03:23:04;;;;;;;1.40;1.40;;;7.90;99.90;;;;;;5042628;28;20297;-75
2023/03/15 03:25:31;;;;;;;1.40;1.40;;;7.90;99.90;;;;;;5039700;28;20246;-76
2023/03/15 03:27:58;;;;;;;1.38;1.30;;;7.80;99.90;;;;;;5039360;28;20286;-75
2023/03/15 03:30:25;;;;;;;1.60;1.60;;;7.80;99.90;;;;;;5043561;28;20215;-76
2023/03/15 03:32:53;;;;;;;1.70;1.70;;;7.70;99.90;;;;;;5044954;28;20206;-76
2023/03/15 03:35:21;;;;;;;1.80;1.80;;;7.60;99.90;;;;;;5041951;28;20209;-75
2023/03/15 03:37:48;;;;;;;1.90;1.80;;;7.50;99.90;;;;;;5059073;28;20223;-75
2023/03/15 03:40:15;;;;;;;1.67;1.67;;;7.50;99.90;;;;;;5041065;28;20260;-76
2023/03/15 03:42:42;;;;;;;1.55;1.55;;;7.50;99.90;;;;;;5048543;28;20244;-75
2023/03/15 03:45:09;;;;;;;1.60;1.60;;;7.60;99.90;;;;;;5041699;28;21133;-76
2023/03/15 03:47:36;;;;;;;2.08;1.98;;;7.50;99.90;;;;;;5045637;28;20301;-75
2023/03/15 03:50:04;;;;;;;1.88;1.77;;;7.40;99.90;;;;;;5042311;28;20306;-75
2023/03/15 03:52:32;;;;;;;1.55;1.55;;;7.20;99.90;;;;;;5040429;28;20636;-76
2023/03/15 03:54:59;;;;;;;1.80;1.70;;;7.10;99.90;;;;;;5040720;28;20735;-75
2023/03/15 03:57:26;;;;;;;1.90;1.80;;;7.10;99.90;;;;;;5043976;28;20222;-75
2023/03/15 03:59:53;;;;;;;2.13;2.03;;;7.10;99.90;;;;;;5039508;28;20224;-75
2023/03/15 04:02:20;;;;;;;2.03;1.92;;;7.10;99.90;;;;;;5041159;28;20205;-76
2023/03/15 04:04:49;;;;;;;1.77;1.77;;;7.10;99.90;;;;;;5042742;28;20252;-75
2023/03/15 04:07:16;;;;;;;1.48;1.48;;;7.10;99.90;;;;;;5037921;28;20219;-74
2023/03/15 04:09:44;;;;;;;1.95;1.85;;;7.10;99.90;;;;;;5040715;28;20230;-75
2023/03/15 04:12:11;;;;;;;1.92;1.92;;;7.00;99.90;;;;;;5042122;28;20720;-75
2023/03/15 04:14:38;;;;;;;1.73;1.70;;;6.90;99.90;;;;;;5041482;28;20685;-76
2023/03/15 04:17:07;;;;;;;2.05;2.00;;;6.90;99.90;;;;;;5040171;28;20266;-76
2023/03/15 04:19:34;;;;;;;1.90;1.90;;;6.90;99.90;;;;;;5041937;28;20210;-76
2023/03/15 04:22:05;;;;;;;2.28;2.17;;;6.90;99.90;;;;;;5039553;28;20653;-75
2023/03/15 04:24:34;;;;;;;2.03;1.92;;;6.90;99.90;;;;;;5042001;28;20218;-74
2023/03/15 04:27:03;;;;;;;1.80;1.80;;;6.80;99.90;;;;;;5039769;28;20219;-74
2023/03/15 04:29:30;;;;;;;2.00;1.90;;;6.80;99.90;;;;;;5038879;28;20206;-75
2023/03/15 04:32:00;;;;;;;1.70;1.60;;;6.70;99.90;;;;;;5040879;28;20247;-75
2023/03/15 04:34:28;;;;;;;1.63;1.63;;;6.70;99.90;;;;;;5054773;28;20263;-75
2023/03/15 04:36:55;;;;;;;2.00;1.90;;;6.60;99.90;;;;;;5048840;28;20218;-75
2023/03/15 04:39:23;;;;;;;2.03;1.92;;;6.50;99.90;;;;;;5045763;28;21054;-75
2023/03/15 04:41:50;;;;;;;2.05;1.95;;;6.40;99.90;;;;;;5039398;28;20633;-75
2023/03/15 04:44:18;;;;;;;2.00;1.90;;;6.40;99.90;;;;;;5046167;28;20195;-75
2023/03/15 04:46:45;;;;;;;2.03;1.98;;;6.30;99.90;;;;;;5042722;28;20219;-75
2023/03/15 04:49:12;;;;;;;1.77;1.77;;;6.20;99.90;;;;;;5042852;28;20298;-75
2023/03/15 04:51:39;;;;;;;1.90;1.90;;;6.20;99.90;;;;;;5045048;28;20310;-75
2023/03/15 04:54:06;;;;;;;1.65;1.65;;;6.20;99.90;;;;;;5046264;28;20254;-75
2023/03/15 04:56:35;;;;;;;2.13;2.03;;;6.10;99.90;;;;;;5044705;28;20773;-75
2023/03/15 04:59:02;;;;;;;2.22;2.13;;;6.10;99.90;;;;;;5044561;28;20200;-75
2023/03/15 05:01:31;;;;;;;2.20;2.10;;;6.00;99.90;;;;;;5039678;28;20289;-75
2023/03/15 05:03:58;;;;;;;1.77;1.77;;;6.00;99.90;;;;;;5045119;28;20249;-76
2023/03/15 05:06:25;;;;;;;1.80;1.80;;;6.00;99.90;;;;;;5045802;28;20297;-75
2023/03/15 05:08:53;;;;;;;2.00;2.00;;;5.90;99.90;;;;;;5043951;28;20203;-76
2023/03/15 05:11:20;;;;;;;2.20;2.10;;;5.90;99.90;;;;;;5045600;28;21457;-75
2023/03/15 05:13:47;;;;;;;1.98;1.95;;;5.90;99.90;;;;;;5046866;28;20930;-74
2023/03/15 05:16:14;;;;;;;1.92;1.83;;;5.90;99.90;;;;;;5042453;28;20231;-75
2023/03/15 05:18:44;;;;;;;2.35;2.25;;;5.90;99.90;;;;;;5046355;28;20202;-75
2023/03/15 05:21:13;;;;;;;1.80;1.80;;;5.80;99.90;;;;;;5046863;28;20680;-75
2023/03/15 05:23:39;;;;;;;2.20;2.10;;;5.70;99.90;;;;;;5045786;28;20248;-74
2023/03/15 05:26:06;;;;;;;2.20;2.10;;;5.70;99.90;;;;;;5045199;28;20667;-74
2023/03/15 05:28:33;;;;;;;2.13;2.03;;;5.50;99.90;;;;;;5044611;28;20732;-75
2023/03/15 05:31:02;;;;;;;2.45;2.35;;;5.50;99.90;;;;;;5046542;28;20302;-75
2023/03/15 05:33:30;;;;;;;2.55;2.45;;;5.40;99.90;;;;;;5058949;28;20206;-75
2023/03/15 05:35:58;;;;;;;2.33;2.22;;;5.40;99.90;;;;;;5043504;28;20209;-73
2023/03/15 05:38:25;;;;;;;1.88;1.85;;;5.40;99.90;;;;;;5042173;28;20211;-77
2023/03/15 05:40:53;;;;;;;2.08;1.98;;;5.40;99.90;;;;;;5045887;28;20301;-75
2023/03/15 05:43:20;;;;;;;2.38;2.25;;;5.60;99.90;;;;;;5045840;28;21282;-75
2023/03/15 05:45:47;;;;;;;2.30;2.20;;;5.70;99.90;;;;;;5044711;28;20293;-75
2023/03/15 05:48:15;;;;;;;2.13;2.03;;;5.90;99.90;;;;;;5044520;28;20247;-76
2023/03/15 05:50:42;;;;;;;2.40;2.30;;;6.10;99.90;;;;;;5044659;28;20213;-75
2023/03/15 05:53:10;;;;;;;2.08;1.98;;;6.30;99.90;;;;;;5044888;28;20223;-74
2023/03/15 05:55:37;;;;;;;2.33;2.22;;;6.50;99.90;;;;;;5046627;28;20226;-75
2023/03/15 05:58:04;;;;;;;2.10;2.00;;;6.70;99.90;;;;;;5049892;28;20277;-75
2023/03/15 06:00:32;;;;;;;2.10;2.00;;;6.90;99.90;;;;;;5046634;28;20555;-74
2023/03/15 06:02:59;;;;;;;2.20;2.10;;;7.00;99.90;;;;;;5042874;28;20257;-75
2023/03/15 06:05:26;;;;;;;1.77;1.77;;;7.00;99.90;;;;;;5046757;28;20248;-76
2023/03/15 06:07:53;;;;;;;2.10;2.00;;;7.10;99.90;;;;;;5047049;28;20226;-76
2023/03/15 06:10:22;;;;;;;2.17;2.08;;;7.20;99.90;;;;;;5043695;28;21330;-74
2023/03/15 06:12:51;;;;;;;2.20;2.10;;;7.20;99.90;;;;;;5044023;28;20286;-76
2023/03/15 06:15:18;;;;;;;2.50;2.40;;;7.30;99.90;;;;;;5045909;28;20941;-75
2023/03/15 06:17:45;;;;;;;2.70;2.50;;;7.30;99.90;;;;;;5048673;28;20223;-75
2023/03/15 06:20:13;;;;;;;2.67;2.50;;;7.20;99.90;;;;;;5042246;28;20833;-75
2023/03/15 06:22:39;;;;;;;2.45;2.35;;;7.00;99.90;;;;;;5045060;28;20207;-75
2023/03/15 06:25:07;;;;;;;2.15;2.05;;;6.90;99.90;;;;;;5044943;28;20203;-75
2023/03/15 06:27:36;;;;;;;2.42;2.33;;;6.80;99.90;;;;;;5046291;28;20322;-76
2023/03/15 06:30:03;;;;;;;2.30;2.20;;;6.80;99.90;;;;;;5048845;28;20207;-76
2023/03/15 06:32:30;;;;;;;1.58;1.58;;;6.90;99.90;;;;;;5057733;28;20280;-75
2023/03/15 06:34:57;;;;;;;2.30;2.20;;;7.60;99.90;;;;;;5046731;28;20257;-75
2023/03/15 06:37:24;;;;;;;2.08;1.92;;;8.50;99.90;;;;;;5045018;28;20254;-75
2023/03/15 06:39:52;;;;;;;2.20;2.10;;;9.30;99.90;;;;;;5045317;28;20191;-74
2023/03/15 06:42:19;;;;;;;2.15;2.05;;;10.00;99.90;;;;;;5042944;28;20289;-75
2023/03/15 06:44:48;;;;;;;1.92;1.90;;;10.50;99.90;;;;;;5045812;28;20233;-75
2023/03/15 06:47:15;;;;;;;1.83;1.73;;;10.90;99.90;;;;;;5049402;28;20249;-76
2023/03/15 06:49:42;;;;;;;1.90;1.80;;;11.30;99.90;;;;;;5050258;28;20195;-75
2023/03/15 06:52:09;;;;;;;2.15;1.95;;;11.50;99.90;;;;;;5047298;28;20223;-76
2023/03/15 06:54:36;;;;;;;2.00;1.90;;;11.60;99.90;;;;;;5043957;28;20199;-75
2023/03/15 06:57:04;;;;;;;1.80;1.70;;;12.00;99.90;;;;;;5039594;28;20302;-76
2023/03/15 06:59:30;;;;;;;1.70;1.70;;;12.20;99.90;;;;;;5041930;28;20238;-77
2023/03/15 07:01:59;;;;;;;1.30;1.30;;;12.00;99.90;;;;;;5037733;28;20382;-75
2023/03/15 07:04:26;;;;;;;1.70;1.70;;;11.90;99.90;;;;;;5036086;28;20285;-75
2023/03/15 07:06:53;;;;;;;1.80;1.70;;;11.90;99.90;;;;;;5037326;28;20301;-76
2023/03/15 07:09:20;;;;;;;1.60;1.60;;;12.10;99.90;;;;;;5040824;28;20272;-77
2023/03/15 07:11:47;;;;;;;1.55;1.55;;;12.30;99.90;;;;;;5038679;28;20306;-75
2023/03/15 07:14:14;;;;;;;1.70;1.60;;;12.50;99.90;;;;;;5040310;28;20202;-76
2023/03/15 07:16:41;;;;;;;2.03;1.60;;;12.50;99.90;;;;;;5034886;28;20317;-76
2023/03/15 07:19:09;;;;;;;1.52;1.52;;;12.60;99.90;;;;;;5037665;28;21897;-75
2023/03/15 07:21:38;;;;;;;1.05;1.05;;;12.70;99.90;;;;;;5037355;28;20194;-75
2023/03/15 07:24:05;;;;;;;1.42;1.40;;;12.80;99.90;;;;;;5034976;28;20207;-76
2023/03/15 07:26:32;;;;;;;1.55;1.45;;;12.80;99.90;;;;;;5037945;28;20799;-76
2023/03/15 07:28:59;;;;;;;1.42;1.38;;;12.90;99.90;;;;;;5054773;28;20190;-76
2023/03/15 07:31:26;;;;;;;1.60;1.60;;;13.10;99.90;;;;;;5041546;28;20302;-75
2023/03/15 07:33:54;;;;;;;1.60;1.50;;;13.20;99.90;;;;;;5037141;28;20851;-76
2023/03/15 07:36:22;;;;;;;1.80;1.70;;;13.30;99.90;;;;;;5037527;28;20294;-76
2023/03/15 07:38:49;;;;;;;1.70;1.65;;;13.40;99.90;;;;;;5037650;28;20275;-76
2023/03/15 07:41:16;;;;;;;2.25;1.92;;;13.30;99.90;;;;;;5038829;28;20245;-76
2023/03/15 07:43:43;;;;;;;1.75;1.65;;;13.20;98.70;;;;;;5033395;28;20222;-75
2023/03/15 07:46:10;;;;;;;1.67;1.58;;;13.40;99.20;;;;;;5037798;28;20937;-75
2023/03/15 07:48:37;;;;;;;1.55;1.55;;;13.40;98.40;;;;;;5032634;28;20218;-75
2023/03/15 07:51:05;;;;;;;1.23;1.23;;;13.30;96.60;;;;;;5037147;28;20313;-76
2023/03/15 07:53:33;;;;;;;1.20;1.20;;;13.40;95.10;;;;;;5037350;28;20846;-75
2023/03/15 07:56:00;;;;;;;1.40;1.40;;;13.30;93.50;;;;;;5039305;28;20294;-75
2023/03/15 07:58:27;;;;;;;1.20;1.20;;;13.40;93.40;;;;;;5035174;28;20214;-75
2023/03/15 08:00:55;;;;;;;1.40;1.40;;;13.60;92.00;;;;;;5034254;28;20234;-75
2023/03/15 08:03:22;;;;;;;2.75;2.55;;;13.80;92.00;;;;;;5032308;28;20203;-77
2023/03/15 08:05:49;;;;;;;2.30;1.80;;;14.00;92.00;;;;;;5034487;28;20215;-75
2023/03/15 08:08:16;;;;;;;1.40;1.40;;;14.00;90.90;;;;;;5038855;28;20303;-78
2023/03/15 08:10:46;;;;;;;1.30;1.30;;;14.40;91.10;;;;;;5038746;28;20230;-75
2023/03/15 08:13:13;;;;;;;1.42;1.35;;;14.50;90.00;;;;;;5040166;28;20307;-77
2023/03/15 08:15:40;;;;;;;1.58;1.58;;;14.40;86.50;;;;;;5040525;28;20264;-76
2023/03/15 08:18:08;;;;;;;1.50;1.50;;;14.20;85.00;;;;;;5039937;28;20915;-77
2023/03/15 08:20:34;;;;;;;1.30;1.30;;;14.10;84.20;;;;;;5039510;28;20705;-76
2023/03/15 08:23:02;;;;;;;1.50;1.50;;;14.00;83.20;;;;;;5038555;28;20724;-76
2023/03/15 08:25:29;;;;;;;1.30;1.30;;;14.00;83.60;;;;;;5040455;28;20681;-78
2023/03/15 08:27:57;;;;;;;1.13;1.13;;;14.20;83.70;;;;;;5057680;28;20215;-74
2023/03/15 08:30:24;;;;;;;1.48;1.25;;;14.30;83.60;;;;;;5040565;28;20307;-76
2023/03/15 08:32:51;;;;;;;1.27;1.27;;;14.40;81.40;;;;;;5037771;28;20214;-75
2023/03/15 08:35:20;;;;;;;1.10;1.10;;;14.40;80.60;;;;;;5035978;28;20205;-76
2023/03/15 08:37:47;;;;;;;1.20;1.20;;;14.50;80.90;;;;;;5040338;28;20219;-76
2023/03/15 08:40:17;;;;;;;1.17;1.17;;;14.70;78.90;;;;;;5039907;28;20207;-75
2023/03/15 08:42:45;;;;;;;1.33;1.05;;;14.80;79.20;;;;;;5039853;28;20199;-75
2023/03/15 08:45:14;;;;;;;1.92;1.30;;;14.80;78.70;;;;;;5042458;28;20295;-77
2023/03/15 08:47:42;;;;;;;3.10;1.50;;;14.90;76.80;;;;;;5038801;28;20219;-76
2023/03/15 08:50:12;;;;;;;1.20;1.20;;;14.90;73.80;;;;;;5041788;28;20207;-77
2023/03/15 08:52:39;;;;;;;1.10;1.10;;;14.90;74.50;;;;;;5036974;28;20251;-77
2023/03/15 08:55:07;;;;;;;0.90;0.90;;;14.90;71.40;;;;;;5038609;28;20199;-75
2023/03/15 08:57:35;;;;;;;1.10;1.10;;;14.80;69.40;;;;;;5035530;28;20314;-76
2023/03/15 09:00:08;;;;;;;1.10;1.10;;;15.00;66.80;;;;;;5039770;28;20231;-75
2023/03/15 09:02:37;;;;;;;1.00;1.00;;;14.80;68.20;;;;;;5040700;28;20625;-77
2023/03/15 09:05:05;;;;;;;1.20;1.20;;;14.90;67.70;;;;;;5037625;28;20303;-75
2023/03/15 09:07:32;;;;;;;1.25;1.17;;;14.60;59.30;;;;;;5036758;28;20230;-76
2023/03/15 09:09:59;;;;;;;1.38;1.27;;;14.60;62.20;;;;;;5036297;28;20282;-74
2023/03/15 09:12:27;;;;;;;1.20;1.10;;;14.30;57.90;;;;;;5037116;28;20246;-76
2023/03/15 09:14:54;;;;;;;1.23;1.13;;;13.70;57.90;;;;;;5037945;28;20191;-75
2023/03/15 09:17:21;;;;;;;1.40;1.30;;;13.60;56.50;;;;;;5035746;28;20312;-75
2023/03/15 09:19:49;;;;;;;1.60;1.50;;;13.80;58.90;;;;;;5038504;28;20234;-76
2023/03/15 09:22:16;;;;;;;1.23;1.23;;;14.00;60.30;;;;;;5017999;28;20250;-75
2023/03/15 09:24:43;;;;;;;1.80;1.65;;;14.40;62.30;;;;;;5031294;28;20257;-75
2023/03/15 09:27:10;;;;;;;1.40;1.30;;;14.60;60.70;;;;;;5036660;28;20262;-75
2023/03/15 09:29:37;;;;;;;1.45;1.35;;;14.80;62.50;;;;;;5037646;28;20214;-76
2023/03/15 09:32:05;;;;;;;1.00;1.00;;;14.80;59.80;;;;;;5034372;28;20247;-75
2023/03/15 09:34:32;;;;;;;1.10;1.10;;;14.80;59.90;;;;;;5038805;28;20203;-76
2023/03/15 09:37:00;;;;;;;1.20;1.20;;;14.70;58.90;;;;;;5036628;28;20254;-75
2023/03/15 09:39:27;;;;;;;1.10;1.10;;;14.70;59.50;;;;;;5036957;28;20230;-76
2023/03/15 09:41:57;;;;;;;0.85;0.85;;;14.90;59.30;;;;;;5036104;28;20195;-76
2023/03/15 09:44:38;;;;;;;1.15;1.15;;;14.80;54.60;;;;;;5039407;28;20293;-76
2023/03/15 09:47:20;;;;;;;1.75;1.20;;;14.90;57.90;;;;;;5037098;28;20238;-77
2023/03/15 09:49:51;;;;;;;1.30;1.20;;;14.90;57.10;;;;;;5038669;28;20212;-75
2023/03/15 09:52:35;;;;;;;1.00;1.00;;;15.00;56.60;;;;;;5034911;28;20282;-76
2023/03/15 09:55:10;;;;;;;1.35;1.10;;;14.90;56.70;;;;;;5039444;28;20203;-75
2023/03/15 09:57:41;;;;;;;1.00;1.00;;;14.90;54.40;;;;;;5048403;28;20525;-76
2023/03/15 10:00:15;;;;;;;1.30;1.30;;;15.00;55.70;;;;;;5036597;28;20978;-75
2023/03/15 10:02:47;;;;;;;2.38;1.58;;;15.10;55.60;;;;;;5037947;28;20814;-77
2023/03/15 10:05:20;;;;;;;1.20;1.20;;;15.30;56.00;;;;;;5036921;28;20211;-77
2023/03/15 10:07:49;;;;;;;1.30;1.30;;;15.40;56.00;;;;;;5036608;28;20230;-76
2023/03/15 10:10:19;;;;;;;1.02;1.00;;;14.90;55.70;;;;;;5029940;28;20325;-77
2023/03/15 10:12:52;;;;;;;1.00;1.00;;;14.80;54.70;;;;;;5029705;28;20215;-76
2023/03/15 10:15:35;;;;;;;1.23;1.23;;;14.80;54.80;;;;;;5033568;28;20278;-75
2023/03/15 10:18:17;;;;;;;1.17;1.13;;;15.00;59.20;;;;;;5035361;28;20254;-76
2023/03/15 10:20:49;;;;;;;1.20;1.10;;;15.20;55.50;;;;;;5032123;28;20195;-75
2023/03/15 10:23:22;;;;;;;1.55;1.15;;;14.80;50.40;;;;;;5033616;28;20871;-75
2023/03/15 10:25:51;;;;;;;1.40;1.30;;;14.10;50.10;;;;;;5032358;28;20204;-73
2023/03/15 10:28:24;;;;;;;1.38;1.25;;;14.20;55.90;;;;;;5034552;28;20854;-75
2023/03/15 10:30:51;;;;;;;1.95;1.08;;;14.40;53.40;;;;;;5034208;28;20203;-75
2023/03/15 10:33:27;;;;;;;1.38;1.27;;;14.20;48.20;;;;;;5036233;28;20316;-75
2023/03/15 10:35:55;;;;;;;1.38;1.38;;;14.10;51.30;;;;;;5037287;28;20198;-74
2023/03/15 10:38:25;;;;;;;1.25;1.25;;;14.40;51.70;;;;;;5034324;28;20234;-74
2023/03/15 10:46:36;;;;;;;1.42;1.42;;;14.60;46.90;;;;;;5117701;27;23015;-76
2023/03/15 10:49:11;;;;;;;2.78;1.30;;;14.50;47.40;;;;;;5107694;27;20203;-75
2023/03/15 10:51:42;;;;;;;1.65;1.20;;;14.50;48.60;;;;;;5108011;27;20323;-75
2023/03/15 10:54:14;;;;;;;1.23;1.23;;;14.50;48.60;;;;;;5125791;27;20223;-75
2023/03/15 10:56:47;;;;;;;2.45;1.60;;;14.60;48.10;;;;;;5112122;27;20244;-75
2023/03/15 10:59:19;;;;;;;1.60;1.50;;;14.30;47.70;;;;;;5111918;27;20235;-74
2023/03/15 11:01:51;;;;;;;1.05;1.05;;;14.30;45.60;;;;;;5113006;27;20779;-75
2023/03/15 11:04:21;;;;;;;1.25;1.25;;;14.40;49.40;;;;;;5109867;27;20219;-74
2023/03/15 11:06:50;;;;;;;2.83;1.25;;;14.40;49.80;;;;;;5112475;27;20220;-75
2023/03/15 11:09:21;;;;;;;2.63;1.50;;;14.60;50.20;;;;;;5110466;27;20257;-75
2023/03/15 11:12:00;;;;;;;1.40;1.30;;;14.60;48.40;;;;;;5115179;27;20200;-75
2023/03/15 11:14:33;;;;;;;1.40;1.40;;;14.60;47.80;;;;;;5110744;27;20315;-75
2023/03/15 11:17:04;;;;;;;1.40;1.40;;;14.60;44.80;;;;;;5114216;27;20222;-74
2023/03/15 11:19:34;;;;;;;1.83;1.33;;;14.70;48.60;;;;;;5108323;27;20204;-73
2023/03/15 11:22:02;;;;;;;2.03;1.90;;;14.70;45.70;;;;;;5110962;27;20196;-74
2023/03/15 11:24:31;;;;;;;1.98;1.88;;;14.70;44.00;;;;;;5110216;27;20193;-74
2023/03/15 11:27:01;;;;;;;1.70;1.60;;;14.60;43.40;;;;;;5107707;28;20312;-73
2023/03/15 11:29:31;;;;;;;1.58;1.50;;;14.50;43.00;;;;;;5110299;28;20737;-74
2023/03/15 11:32:02;;;;;;;1.67;1.40;;;14.40;44.60;;;;;;5109546;27;20201;-74
2023/03/15 11:34:39;;;;;;;1.40;1.30;;;14.50;45.70;;;;;;5109248;27;20200;-75
2023/03/15 11:37:14;;;;;;;1.67;1.58;;;14.60;43.50;;;;;;5112834;27;20695;-74
2023/03/15 11:39:46;;;;;;;1.70;1.60;;;14.90;45.90;;;;;;5109877;27;20208;-76
2023/03/15 11:42:23;;;;;;;1.52;1.42;;;15.00;45.20;;;;;;5111094;27;20287;-76
2023/03/15 11:44:54;;;;;;;1.30;1.30;;;15.00;46.00;;;;;;5114241;28;20304;-76
2023/03/15 11:47:32;;;;;;;1.15;1.15;;;14.80;40.50;;;;;;5112801;27;20303;-75
2023/03/15 11:49:59;;;;;;;2.67;1.50;;;14.80;44.50;;;;;;5111899;27;21201;-75
2023/03/15 11:52:28;;;;;;;1.23;1.23;;;14.70;42.90;;;;;;5127111;27;20227;-75
2023/03/15 11:54:57;;;;;;;1.10;1.10;;;14.90;45.60;;;;;;5114107;27;20285;-76
2023/03/15 11:57:40;;;;;;;2.83;1.02;;;14.90;44.70;;;;;;5097965;28;20252;-74
2023/03/15 12:00:47;;;;;;;1.25;1.25;;;14.80;43.90;;;;;;5095461;28;20225;-76
2023/03/15 12:03:41;;;;;;;1.20;1.20;;;14.70;42.30;;;;;;5091031;28;20600;-75
2023/03/15 12:06:33;;;;;;;1.30;1.30;;;14.40;42.40;;;;;;5078937;28;20252;-75
2023/03/15 12:09:00;;;;;;;1.33;1.27;;;14.50;46.80;;;;;;5099755;28;20197;-74
2023/03/15 12:11:45;;;;;;;2.05;1.75;;;14.70;43.50;;;;;;5097277;28;20229;-74
2023/03/15 12:14:33;;;;;;;1.25;1.20;;;14.60;45.00;;;;;;5096970;28;20228;-75
2023/03/15 12:17:46;;;;;;;2.35;1.42;;;14.70;44.50;;;;;;5090941;28;20300;-73
2023/03/15 12:20:21;;;;;;;1.70;1.60;;;14.70;43.30;;;;;;5062256;27;20228;-76
2023/03/15 12:22:52;;;;;;;1.50;1.40;;;14.60;43.20;;;;;;5099194;28;20281;-76
2023/03/15 12:25:25;;;;;;;2.05;1.15;;;14.50;42.50;;;;;;5098021;28;20228;-73
2023/03/15 12:27:55;;;;;;;1.70;1.60;;;14.60;42.00;;;;;;5096711;28;20225;-74
2023/03/15 12:30:26;;;;;;;1.05;1.05;;;14.70;43.90;;;;;;5096934;28;20281;-75
2023/03/15 12:32:55;;;;;;;1.27;1.27;;;14.80;43.70;;;;;;5098343;28;20220;-76
2023/03/15 12:35:29;;;;;;;1.25;1.15;;;14.70;42.10;;;;;;5097413;28;20197;-76
2023/03/15 12:38:00;;;;;;;1.63;1.33;;;14.50;42.40;;;;;;5096088;28;20337;-76
2023/03/15 12:40:41;;;;;;;1.50;1.40;;;14.40;42.40;;;;;;5097787;28;20284;-75
2023/03/15 12:43:11;;;;;;;1.67;1.20;;;14.50;41.70;;;;;;5098755;28;20720;-74
2023/03/15 12:45:45;;;;;;;1.33;1.30;;;14.40;40.90;;;;;;5096702;28;20774;-74
2023/03/15 12:48:30;;;;;;;1.10;1.10;;;14.30;41.60;;;;;;5098431;28;20281;-74
2023/03/15 12:51:04;;;;;;;1.60;1.50;;;14.20;42.70;;;;;;5100177;28;20875;-75
2023/03/15 12:53:50;;;;;;;1.63;1.52;;;14.40;42.10;;;;;;5094213;28;20287;-74
2023/03/15 12:56:34;;;;;;;1.30;1.20;;;14.40;42.10;;;;;;5093774;28;20199;-76
2023/03/15 12:59:11;;;;;;;1.20;1.10;;;14.50;41.50;;;;;;5093566;28;20289;-75
2023/03/15 13:01:41;;;;;;;1.08;1.05;;;14.40;40.50;;;;;;5096027;28;20392;-75
2023/03/15 13:04:11;;;;;;;1.10;1.10;;;14.50;41.70;;;;;;5093020;28;20329;-73
2023/03/15 13:06:50;;;;;;;1.23;1.13;;;14.50;41.30;;;;;;5097348;28;20220;-74
2023/03/15 13:09:40;;;;;;;1.73;1.63;;;14.50;40.70;;;;;;5092027;28;20240;-75
2023/03/15 13:12:14;;;;;;;1.58;1.45;;;14.60;41.20;;;;;;5096662;28;20605;-74